Time;durP1;ratioP1;P1;durP2;ratioP2;P2;SDS_P1;SDS_P2;PMS_P1;PMS_P2;Temp;Humidity;BMP_temperature;BMP_pressure;BME280_temperature;BME280_humidity;BME280_pressure;Samples;Min_cycle;Max_cycle;Signal;HPM_P1;HPM_P2
2021/09/12 00:00:31;;;;;;;16.23;14.73;;;20.70;99.90;;;;;;5053779;28;20464;-64
2021/09/12 00:02:58;;;;;;;15.93;14.50;;;20.70;99.90;;;;;;5054337;28;20485;-64
2021/09/12 00:05:25;;;;;;;16.93;15.33;;;20.70;99.90;;;;;;5067128;28;20476;-64
2021/09/12 00:07:52;;;;;;;17.00;15.30;;;20.70;99.90;;;;;;5054343;28;20459;-64
2021/09/12 00:10:19;;;;;;;16.87;15.37;;;20.70;99.90;;;;;;5057750;28;20484;-62
2021/09/12 00:12:46;;;;;;;16.53;15.00;;;20.70;99.90;;;;;;5063087;28;20470;-63
2021/09/12 00:15:14;;;;;;;17.23;15.60;;;20.70;99.90;;;;;;5053843;28;21294;-63
2021/09/12 00:17:41;;;;;;;17.97;16.33;;;20.60;99.90;;;;;;5073929;28;20466;-63
2021/09/12 00:20:09;;;;;;;16.77;15.23;;;20.60;99.90;;;;;;5066355;28;20469;-63
2021/09/12 00:22:36;;;;;;;15.77;14.37;;;20.60;99.90;;;;;;5068395;28;21307;-63
2021/09/12 00:25:03;;;;;;;16.17;14.77;;;20.60;99.90;;;;;;5065884;28;20553;-63
2021/09/12 00:27:30;;;;;;;15.93;14.53;;;20.60;99.90;;;;;;5062216;28;20980;-64
2021/09/12 00:29:57;;;;;;;18.20;16.60;;;20.60;99.90;;;;;;5053772;28;20497;-64
2021/09/12 00:32:25;;;;;;;14.73;13.43;;;20.50;99.90;;;;;;5065875;28;20475;-64
2021/09/12 00:34:52;;;;;;;16.67;15.27;;;20.50;99.90;;;;;;5053757;28;20471;-64
2021/09/12 00:37:20;;;;;;;15.17;13.90;;;20.50;99.90;;;;;;5059611;28;20475;-64
2021/09/12 00:39:50;;;;;;;17.07;15.50;;;20.50;99.90;;;;;;5059986;28;20469;-63
2021/09/12 00:42:17;;;;;;;16.07;14.57;;;20.50;99.90;;;;;;5056382;28;20468;-64
2021/09/12 00:44:44;;;;;;;16.60;15.20;;;20.50;99.90;;;;;;5066687;28;20966;-63
2021/09/12 00:47:14;;;;;;;17.17;15.57;;;20.50;99.90;;;;;;5053416;28;20882;-63
2021/09/12 00:49:43;;;;;;;17.33;15.70;;;20.50;99.90;;;;;;5053017;28;20462;-63
2021/09/12 00:52:12;;;;;;;16.80;15.40;;;20.50;99.90;;;;;;5053097;28;20473;-63
2021/09/12 00:54:41;;;;;;;15.80;14.33;;;20.40;99.90;;;;;;5062305;28;20484;-63
2021/09/12 00:57:10;;;;;;;16.37;14.80;;;20.50;99.90;;;;;;5063336;28;20471;-63
2021/09/12 00:59:39;;;;;;;15.30;14.00;;;20.40;99.90;;;;;;5056463;28;20470;-63
2021/09/12 01:02:07;;;;;;;15.70;14.43;;;20.40;99.90;;;;;;5073155;28;20465;-63
2021/09/12 01:04:35;;;;;;;15.33;14.00;;;20.40;99.90;;;;;;5054683;28;20561;-63
2021/09/12 01:07:05;;;;;;;14.60;13.40;;;20.40;99.90;;;;;;5064691;28;20812;-63
2021/09/12 01:09:34;;;;;;;15.60;14.30;;;20.40;99.90;;;;;;5053368;28;20499;-63
2021/09/12 01:12:02;;;;;;;15.30;14.00;;;20.30;99.90;;;;;;5065871;28;20535;-64
2021/09/12 01:14:31;;;;;;;15.43;14.20;;;20.30;99.90;;;;;;5052355;28;20479;-64
2021/09/12 01:16:58;;;;;;;15.07;13.77;;;20.30;99.90;;;;;;5067775;28;20466;-64
2021/09/12 01:19:26;;;;;;;14.07;12.87;;;20.30;99.90;;;;;;5057688;28;21124;-64
2021/09/12 01:21:56;;;;;;;15.20;13.90;;;20.30;99.90;;;;;;5072105;28;20480;-64
2021/09/12 01:24:24;;;;;;;14.20;13.03;;;20.30;99.90;;;;;;5058937;28;20475;-64
2021/09/12 01:26:51;;;;;;;14.83;13.50;;;20.30;99.90;;;;;;5068527;28;20800;-64
2021/09/12 01:29:18;;;;;;;13.67;12.47;;;20.30;99.90;;;;;;5065588;28;20478;-65
2021/09/12 01:31:46;;;;;;;14.30;13.03;;;20.30;99.90;;;;;;5065456;28;21240;-63
2021/09/12 01:34:15;;;;;;;14.17;13.07;;;20.20;99.90;;;;;;5052463;28;20481;-63
2021/09/12 01:36:42;;;;;;;14.10;13.00;;;20.20;99.90;;;;;;5053423;28;20810;-64
2021/09/12 01:39:09;;;;;;;15.27;13.97;;;20.20;99.90;;;;;;5064059;28;20562;-64
2021/09/12 01:41:37;;;;;;;15.40;14.10;;;20.20;99.90;;;;;;5052118;28;20467;-64
2021/09/12 01:44:05;;;;;;;14.53;13.33;;;20.20;99.90;;;;;;5051655;28;20816;-64
2021/09/12 01:46:35;;;;;;;15.70;14.27;;;20.10;99.90;;;;;;5051891;28;20470;-64
2021/09/12 01:49:05;;;;;;;14.67;13.40;;;20.10;99.90;;;;;;5052475;28;20499;-63
2021/09/12 01:51:32;;;;;;;15.03;13.73;;;20.10;99.90;;;;;;5051760;28;20467;-63
2021/09/12 01:53:59;;;;;;;16.60;15.10;;;20.10;99.90;;;;;;5059932;28;21052;-64
2021/09/12 01:56:26;;;;;;;15.10;13.70;;;20.10;99.90;;;;;;5059729;28;20472;-64
2021/09/12 01:58:54;;;;;;;16.63;15.20;;;20.10;99.90;;;;;;5052267;28;20466;-64
2021/09/12 02:01:21;;;;;;;15.90;14.60;;;20.10;99.90;;;;;;5065627;28;20825;-65
2021/09/12 02:03:49;;;;;;;16.17;14.83;;;20.10;99.90;;;;;;5052081;28;20463;-63
2021/09/12 02:06:17;;;;;;;14.87;13.67;;;20.00;99.90;;;;;;5056729;28;20841;-63
2021/09/12 02:08:44;;;;;;;16.17;14.77;;;20.00;99.90;;;;;;5060113;28;20467;-64
2021/09/12 02:11:12;;;;;;;15.67;14.27;;;20.00;99.90;;;;;;5052093;28;20470;-64
2021/09/12 02:13:39;;;;;;;15.53;14.10;;;20.00;99.90;;;;;;5064198;28;20466;-64
2021/09/12 02:16:08;;;;;;;16.10;14.60;;;20.00;99.90;;;;;;5060734;28;20804;-64
2021/09/12 02:18:35;;;;;;;18.70;14.40;;;20.00;99.90;;;;;;5058733;28;20467;-64
2021/09/12 02:21:01;;;;;;;15.07;13.87;;;20.00;99.90;;;;;;5070398;28;20492;-64
2021/09/12 02:23:29;;;;;;;16.77;15.03;;;19.90;99.90;;;;;;5059625;28;20481;-64
2021/09/12 02:25:57;;;;;;;15.83;14.50;;;20.00;99.90;;;;;;5066660;28;20542;-64
2021/09/12 02:28:24;;;;;;;17.90;16.40;;;19.90;99.90;;;;;;5059129;28;20968;-64
2021/09/12 02:30:51;;;;;;;18.20;16.77;;;19.90;99.90;;;;;;5057972;28;21265;-64
2021/09/12 02:33:19;;;;;;;16.13;14.73;;;19.90;99.90;;;;;;5058670;28;20467;-64
2021/09/12 02:35:46;;;;;;;16.40;15.00;;;19.90;99.90;;;;;;5051283;28;20828;-64
2021/09/12 02:38:13;;;;;;;15.83;14.60;;;19.90;99.90;;;;;;5065289;28;20473;-64
2021/09/12 02:40:40;;;;;;;16.20;14.87;;;19.90;99.90;;;;;;5051530;28;20533;-62
2021/09/12 02:43:07;;;;;;;17.50;15.70;;;20.00;99.90;;;;;;5051142;28;20482;-63
2021/09/12 02:45:35;;;;;;;69.97;62.50;;;19.90;99.90;;;;;;5058272;28;20863;-64
2021/09/12 02:48:02;;;;;;;73.43;64.83;;;19.90;99.90;;;;;;5055720;28;20459;-63
2021/09/12 02:50:31;;;;;;;33.63;30.33;;;20.00;99.90;;;;;;5058911;28;20480;-64
2021/09/12 02:52:58;;;;;;;26.57;24.03;;;20.00;99.90;;;;;;5057663;28;20953;-63
2021/09/12 02:55:25;;;;;;;19.93;18.33;;;20.00;99.90;;;;;;5064783;28;20481;-63
2021/09/12 02:57:52;;;;;;;17.47;15.90;;;20.00;99.90;;;;;;5066263;28;20472;-63
2021/09/12 03:00:19;;;;;;;15.17;13.90;;;20.00;99.90;;;;;;5062651;28;20470;-63
2021/09/12 03:02:46;;;;;;;15.77;14.40;;;20.00;99.90;;;;;;5059924;28;20467;-63
2021/09/12 03:05:13;;;;;;;15.20;14.00;;;20.00;99.90;;;;;;5064768;28;20467;-63
2021/09/12 03:07:41;;;;;;;15.20;14.00;;;20.00;99.90;;;;;;5066742;28;20579;-63
2021/09/12 03:10:08;;;;;;;15.70;14.50;;;20.00;99.90;;;;;;5063568;28;20477;-63
2021/09/12 03:12:35;;;;;;;15.50;14.20;;;19.90;99.90;;;;;;5061361;28;20493;-63
2021/09/12 03:15:02;;;;;;;16.37;14.97;;;19.90;99.90;;;;;;5065982;28;20463;-63
2021/09/12 03:17:29;;;;;;;16.50;15.10;;;19.90;99.90;;;;;;5071605;28;21052;-63
2021/09/12 03:19:56;;;;;;;15.73;14.43;;;19.90;99.90;;;;;;5054867;28;20887;-63
2021/09/12 03:22:23;;;;;;;15.70;14.40;;;19.90;99.90;;;;;;5068549;28;20482;-63
2021/09/12 03:24:51;;;;;;;16.30;15.00;;;19.90;99.90;;;;;;5064173;28;20819;-63
2021/09/12 03:27:18;;;;;;;16.97;15.20;;;19.90;99.90;;;;;;5061598;28;20477;-63
2021/09/12 03:29:45;;;;;;;15.00;13.70;;;19.90;99.90;;;;;;5064321;28;20485;-63
2021/09/12 03:32:12;;;;;;;15.97;14.57;;;19.80;99.90;;;;;;5069839;28;20480;-63
2021/09/12 03:34:39;;;;;;;17.13;15.80;;;19.90;99.90;;;;;;5070842;28;20476;-63
2021/09/12 03:37:06;;;;;;;17.23;15.83;;;19.80;99.90;;;;;;5063588;28;20471;-63
2021/09/12 03:39:33;;;;;;;16.43;15.13;;;19.80;99.90;;;;;;5058795;28;20467;-63
2021/09/12 03:42:01;;;;;;;16.07;14.53;;;19.80;99.90;;;;;;5060592;28;20469;-63
2021/09/12 03:44:28;;;;;;;16.80;15.33;;;19.80;99.90;;;;;;5068390;28;20481;-63
2021/09/12 03:46:55;;;;;;;16.90;15.50;;;19.80;99.90;;;;;;5058173;28;20800;-63
2021/09/12 03:49:21;;;;;;;16.57;14.83;;;19.80;99.90;;;;;;5066113;28;20484;-63
2021/09/12 03:51:48;;;;;;;16.80;15.10;;;19.80;99.90;;;;;;5055331;28;20463;-63
2021/09/12 03:54:15;;;;;;;14.97;13.77;;;19.80;99.90;;;;;;5060697;28;20472;-63
2021/09/12 03:56:42;;;;;;;15.40;14.10;;;19.70;99.90;;;;;;5067253;28;20471;-63
2021/09/12 03:59:10;;;;;;;17.27;15.77;;;19.70;99.90;;;;;;5066631;28;20471;-63
2021/09/12 04:01:37;;;;;;;15.93;14.53;;;19.70;99.90;;;;;;5060600;28;20978;-63
2021/09/12 04:04:04;;;;;;;85.57;76.17;;;19.70;99.90;;;;;;5061368;28;20486;-63
2021/09/12 04:06:31;;;;;;;35.13;31.73;;;19.70;99.90;;;;;;5066729;28;20471;-63
2021/09/12 04:08:58;;;;;;;21.60;19.60;;;19.70;99.90;;;;;;5060512;28;20460;-63
2021/09/12 04:11:25;;;;;;;18.30;16.60;;;19.70;99.90;;;;;;5060758;28;20470;-63
2021/09/12 04:13:52;;;;;;;18.07;16.47;;;19.70;99.90;;;;;;5073740;28;20466;-63
2021/09/12 04:16:20;;;;;;;16.87;15.47;;;19.70;99.90;;;;;;5073387;28;20471;-63
2021/09/12 04:18:47;;;;;;;15.10;13.90;;;19.70;99.90;;;;;;5060340;28;20485;-63
2021/09/12 04:21:14;;;;;;;16.90;15.40;;;19.60;99.90;;;;;;5053962;28;20809;-63
2021/09/12 04:23:40;;;;;;;18.73;16.70;;;19.60;99.90;;;;;;5067020;28;20968;-64
2021/09/12 04:26:07;;;;;;;15.17;13.83;;;19.60;99.90;;;;;;5061181;28;20982;-63
2021/09/12 04:28:34;;;;;;;16.27;14.70;;;19.60;99.90;;;;;;5060182;28;20474;-63
2021/09/12 04:31:01;;;;;;;48.50;43.30;;;19.60;99.90;;;;;;5066503;28;20455;-63
2021/09/12 04:33:29;;;;;;;39.57;35.30;;;19.60;99.90;;;;;;5067723;28;20536;-63
2021/09/12 04:35:56;;;;;;;25.23;22.60;;;19.60;99.90;;;;;;5072786;28;22763;-64
2021/09/12 04:38:23;;;;;;;19.87;17.93;;;19.70;99.90;;;;;;5073676;28;20548;-63
2021/09/12 04:40:50;;;;;;;18.10;16.47;;;19.70;99.90;;;;;;5072981;28;20838;-64
2021/09/12 04:43:17;;;;;;;17.00;15.60;;;19.60;99.90;;;;;;5073707;28;20466;-63
2021/09/12 04:45:44;;;;;;;19.27;17.67;;;19.70;99.90;;;;;;5073087;28;20473;-63
2021/09/12 04:48:11;;;;;;;17.37;15.80;;;19.70;99.90;;;;;;5073539;28;20462;-63
2021/09/12 04:50:40;;;;;;;15.80;14.50;;;19.60;99.90;;;;;;5073154;28;20471;-64
2021/09/12 04:53:07;;;;;;;17.00;15.63;;;19.60;99.90;;;;;;5073369;28;20471;-63
2021/09/12 04:55:34;;;;;;;16.33;14.87;;;19.60;99.90;;;;;;5073420;28;20470;-63
2021/09/12 04:58:01;;;;;;;16.90;15.47;;;19.60;99.90;;;;;;5073070;28;20458;-63
2021/09/12 05:00:28;;;;;;;15.77;14.47;;;19.60;99.90;;;;;;5073409;28;20532;-63
2021/09/12 05:02:55;;;;;;;17.20;15.70;;;19.60;99.90;;;;;;5072888;28;20466;-63
2021/09/12 05:05:21;;;;;;;16.27;14.97;;;19.60;99.90;;;;;;5073323;28;20469;-63
2021/09/12 05:07:54;;;;;;;18.23;16.73;;;19.60;99.90;;;;;;5072880;28;20462;-64
2021/09/12 05:10:21;;;;;;;15.90;14.53;;;19.60;99.90;;;;;;5073095;28;21018;-64
2021/09/12 05:12:48;;;;;;;16.70;15.20;;;19.60;99.90;;;;;;5072792;28;20462;-64
2021/09/12 05:15:15;;;;;;;16.70;15.30;;;19.60;99.90;;;;;;5073149;28;20476;-65
2021/09/12 05:17:42;;;;;;;18.30;16.60;;;19.50;99.90;;;;;;5072590;28;20467;-65
2021/09/12 05:20:10;;;;;;;16.63;15.23;;;19.50;99.90;;;;;;5073286;28;20470;-64
2021/09/12 05:22:38;;;;;;;16.57;15.17;;;19.50;99.90;;;;;;5073060;28;20462;-64
2021/09/12 05:25:07;;;;;;;15.43;14.10;;;19.50;99.90;;;;;;5072496;28;20550;-64
2021/09/12 05:27:34;;;;;;;15.13;13.70;;;19.50;99.90;;;;;;5073097;28;20473;-64
2021/09/12 05:30:01;;;;;;;17.40;15.60;;;19.50;99.90;;;;;;5072331;28;20462;-64
2021/09/12 05:32:28;;;;;;;16.30;14.80;;;19.50;99.90;;;;;;5072738;28;20470;-64
2021/09/12 05:34:54;;;;;;;16.07;14.60;;;19.50;99.90;;;;;;5072568;28;20466;-64
2021/09/12 05:37:21;;;;;;;19.20;17.20;;;19.60;99.90;;;;;;5072512;28;20474;-64
2021/09/12 05:39:48;;;;;;;15.73;14.33;;;19.60;99.90;;;;;;5072387;28;20481;-64
2021/09/12 05:42:16;;;;;;;14.60;13.40;;;19.60;99.90;;;;;;5072752;28;20472;-64
2021/09/12 05:44:43;;;;;;;15.07;13.73;;;19.60;99.90;;;;;;5072278;28;20466;-64
2021/09/12 05:47:10;;;;;;;18.87;16.83;;;19.70;99.90;;;;;;5072719;28;20473;-64
2021/09/12 05:49:37;;;;;;;20.53;18.53;;;19.70;99.90;;;;;;5072573;28;20469;-64
2021/09/12 05:52:05;;;;;;;19.43;17.63;;;19.70;99.90;;;;;;5072213;28;20466;-64
2021/09/12 05:54:32;;;;;;;18.80;16.93;;;19.80;99.90;;;;;;5072657;28;20963;-65
2021/09/12 05:56:58;;;;;;;23.40;20.93;;;19.80;99.90;;;;;;5072087;28;20807;-64
2021/09/12 05:59:27;;;;;;;20.37;18.17;;;19.80;99.90;;;;;;5072450;28;20474;-64
2021/09/12 06:01:53;;;;;;;18.40;16.63;;;19.80;99.90;;;;;;5072113;28;20467;-64
2021/09/12 06:04:20;;;;;;;17.53;15.70;;;19.80;99.90;;;;;;5072504;28;20466;-64
2021/09/12 06:06:47;;;;;;;16.20;14.70;;;19.90;99.90;;;;;;5071962;28;20469;-64
2021/09/12 06:09:14;;;;;;;15.73;14.33;;;19.90;99.90;;;;;;5072512;28;20599;-63
2021/09/12 06:11:41;;;;;;;18.83;15.80;;;19.90;99.90;;;;;;5072472;28;20651;-63
2021/09/12 06:14:08;;;;;;;14.90;13.43;;;19.90;99.90;;;;;;5072019;28;20485;-62
2021/09/12 06:16:36;;;;;;;15.43;14.17;;;20.00;99.90;;;;;;5072506;28;20466;-63
2021/09/12 06:19:03;;;;;;;20.20;18.30;;;20.00;99.90;;;;;;5071796;28;20492;-63
2021/09/12 06:21:30;;;;;;;17.17;15.47;;;20.00;99.90;;;;;;5072327;28;20466;-63
2021/09/12 06:23:58;;;;;;;16.37;14.97;;;20.10;99.90;;;;;;5071989;28;20543;-63
2021/09/12 06:26:25;;;;;;;14.83;13.60;;;20.10;99.90;;;;;;5072163;28;21024;-63
2021/09/12 06:28:53;;;;;;;16.87;15.23;;;20.20;99.90;;;;;;5072088;28;20462;-62
2021/09/12 06:31:20;;;;;;;17.10;15.53;;;20.20;99.90;;;;;;5076193;28;20979;-63
2021/09/12 06:33:48;;;;;;;17.43;15.83;;;20.30;99.90;;;;;;5075731;28;20553;-63
2021/09/12 06:36:17;;;;;;;15.70;14.30;;;20.40;99.90;;;;;;5076246;28;20773;-63
2021/09/12 06:38:44;;;;;;;15.50;14.00;;;20.40;99.90;;;;;;5076146;28;20470;-63
2021/09/12 06:41:11;;;;;;;15.80;14.33;;;20.40;99.90;;;;;;5075889;28;21272;-63
2021/09/12 06:43:38;;;;;;;14.80;13.40;;;20.40;99.90;;;;;;5076225;28;20480;-63
2021/09/12 06:46:06;;;;;;;14.77;13.33;;;20.50;99.90;;;;;;5075548;28;20986;-63
2021/09/12 06:48:33;;;;;;;15.10;13.70;;;20.50;99.90;;;;;;5075888;28;20538;-64
2021/09/12 06:51:01;;;;;;;13.33;12.17;;;20.50;99.90;;;;;;5075495;28;20807;-63
2021/09/12 06:53:28;;;;;;;16.00;14.70;;;20.60;99.90;;;;;;5075871;28;20468;-63
2021/09/12 06:55:55;;;;;;;15.47;14.03;;;20.60;99.90;;;;;;5075291;28;20809;-63
2021/09/12 06:58:21;;;;;;;15.03;13.60;;;20.60;99.90;;;;;;5075519;28;20466;-64
2021/09/12 07:00:48;;;;;;;14.57;13.33;;;20.70;99.90;;;;;;5075299;28;20467;-63
2021/09/12 07:03:15;;;;;;;18.03;16.27;;;20.70;99.90;;;;;;5075498;28;20498;-64
2021/09/12 07:05:42;;;;;;;17.53;16.00;;;20.80;99.90;;;;;;5075655;28;20462;-63
2021/09/12 07:08:10;;;;;;;15.07;13.70;;;20.80;99.90;;;;;;5074997;28;20949;-63
2021/09/12 07:10:37;;;;;;;14.93;13.53;;;20.80;99.90;;;;;;5075503;28;20980;-63
2021/09/12 07:13:04;;;;;;;16.07;14.57;;;20.80;99.90;;;;;;5075047;28;20466;-63
2021/09/12 07:15:31;;;;;;;13.83;12.63;;;20.80;99.90;;;;;;5075428;28;20968;-64
2021/09/12 07:17:58;;;;;;;14.87;13.60;;;20.90;99.90;;;;;;5074949;28;20466;-64
2021/09/12 07:20:25;;;;;;;17.67;15.87;;;20.90;99.90;;;;;;5075288;28;20541;-64
2021/09/12 07:22:52;;;;;;;14.50;13.10;;;21.00;99.90;;;;;;5074856;28;20461;-64
2021/09/12 07:25:20;;;;;;;15.07;13.77;;;21.00;99.90;;;;;;5075311;28;20956;-64
2021/09/12 07:27:47;;;;;;;14.23;12.87;;;21.00;99.90;;;;;;5075127;28;20557;-63
2021/09/12 07:30:15;;;;;;;13.37;12.27;;;21.00;99.90;;;;;;5074629;28;20472;-63
2021/09/12 07:32:42;;;;;;;12.97;11.87;;;21.00;99.90;;;;;;5075029;28;20868;-63
2021/09/12 07:35:10;;;;;;;15.43;13.93;;;21.00;99.90;;;;;;5074533;28;20472;-64
2021/09/12 07:37:37;;;;;;;13.90;12.60;;;21.10;99.90;;;;;;5074914;28;20466;-63
2021/09/12 07:40:04;;;;;;;14.93;13.63;;;21.10;99.90;;;;;;5074156;28;20826;-64
2021/09/12 07:42:33;;;;;;;13.87;12.70;;;21.10;99.90;;;;;;5074161;28;20463;-63
2021/09/12 07:44:59;;;;;;;15.13;13.63;;;21.10;99.90;;;;;;5074272;28;20968;-64
2021/09/12 07:47:26;;;;;;;13.30;12.10;;;21.20;99.90;;;;;;5074923;28;20465;-64
2021/09/12 07:49:53;;;;;;;14.60;13.30;;;21.20;99.90;;;;;;5074274;28;20462;-64
2021/09/12 07:52:20;;;;;;;15.73;14.23;;;21.20;99.90;;;;;;5074587;28;20466;-64
2021/09/12 07:54:47;;;;;;;16.70;15.20;;;21.20;99.90;;;;;;5074814;28;20459;-64
2021/09/12 07:57:14;;;;;;;14.73;13.30;;;21.20;99.90;;;;;;5074095;28;20458;-64
2021/09/12 07:59:42;;;;;;;14.77;13.47;;;21.20;99.90;;;;;;5074411;28;20480;-64
2021/09/12 08:02:08;;;;;;;15.03;13.50;;;21.20;99.90;;;;;;5074141;28;20507;-64
2021/09/12 08:04:35;;;;;;;15.77;14.37;;;21.30;99.90;;;;;;5074407;28;20470;-64
2021/09/12 08:07:02;;;;;;;15.80;14.40;;;21.30;99.90;;;;;;5074005;28;20458;-63
2021/09/12 08:09:30;;;;;;;15.90;14.37;;;21.30;99.90;;;;;;5074422;28;20467;-63
2021/09/12 08:11:57;;;;;;;15.23;13.87;;;21.30;99.90;;;;;;5074009;28;20553;-64
2021/09/12 08:14:24;;;;;;;14.47;13.07;;;21.30;99.90;;;;;;5074219;28;20544;-64
2021/09/12 08:16:53;;;;;;;21.10;18.97;;;21.30;99.90;;;;;;5074168;28;20476;-64
2021/09/12 08:19:20;;;;;;;19.80;18.00;;;21.40;99.90;;;;;;5073889;28;20523;-64
2021/09/12 08:21:47;;;;;;;15.80;14.50;;;21.40;99.90;;;;;;5074214;28;20462;-64
2021/09/12 08:24:14;;;;;;;14.50;13.27;;;21.40;99.90;;;;;;5073631;28;20465;-64
2021/09/12 08:26:40;;;;;;;13.87;12.70;;;21.40;99.90;;;;;;5074048;28;20462;-64
2021/09/12 08:29:07;;;;;;;14.17;12.97;;;21.40;99.90;;;;;;5073607;28;20816;-64
2021/09/12 08:31:34;;;;;;;15.03;13.53;;;21.40;99.90;;;;;;5073935;28;20471;-63
2021/09/12 08:34:02;;;;;;;15.10;13.60;;;21.40;99.90;;;;;;5073324;28;20990;-63
2021/09/12 08:36:29;;;;;;;12.53;11.53;;;21.40;99.90;;;;;;5073903;28;20454;-63
2021/09/12 08:38:56;;;;;;;14.43;13.23;;;21.40;99.90;;;;;;5073653;28;20474;-63
2021/09/12 08:41:24;;;;;;;13.90;12.77;;;21.40;99.90;;;;;;5073468;28;20454;-63
2021/09/12 08:43:51;;;;;;;15.47;14.27;;;21.40;99.90;;;;;;5073868;28;20467;-63
2021/09/12 08:46:19;;;;;;;16.10;14.67;;;21.40;99.90;;;;;;5073108;28;20555;-63
2021/09/12 08:48:46;;;;;;;14.50;13.20;;;21.50;99.90;;;;;;5073817;28;20804;-63
2021/09/12 08:51:14;;;;;;;16.17;14.67;;;21.50;99.90;;;;;;5073192;28;20462;-63
2021/09/12 08:53:42;;;;;;;15.67;14.03;;;21.50;99.90;;;;;;5073231;28;20461;-63
2021/09/12 08:56:09;;;;;;;15.93;14.33;;;21.50;99.90;;;;;;5072977;28;20466;-64
2021/09/12 08:58:36;;;;;;;13.67;12.37;;;21.50;99.90;;;;;;5073421;28;20473;-63
2021/09/12 09:01:04;;;;;;;14.43;13.10;;;21.60;99.90;;;;;;5072909;28;20549;-64
2021/09/12 09:03:35;;;;;;;17.40;15.80;;;21.60;99.90;;;;;;5073455;28;20976;-64
2021/09/12 09:06:12;;;;;;;14.63;13.30;;;21.60;99.90;;;;;;5072757;28;20473;-63
2021/09/12 09:08:52;;;;;;;16.27;14.73;;;21.60;99.90;;;;;;5073108;28;20967;-64
2021/09/12 09:11:29;;;;;;;13.50;12.17;;;21.60;99.90;;;;;;5072801;28;20481;-64
2021/09/12 09:13:56;;;;;;;14.30;13.10;;;21.70;99.90;;;;;;5073131;28;20477;-63
2021/09/12 09:16:27;;;;;;;15.20;13.87;;;21.80;99.90;;;;;;5071974;28;20472;-64
2021/09/12 09:19:02;;;;;;;13.50;12.40;;;21.90;99.90;;;;;;5073027;28;20968;-64
2021/09/12 09:21:31;;;;;;;16.97;15.47;;;21.90;99.90;;;;;;5072529;28;20865;-64
2021/09/12 09:24:17;;;;;;;14.90;13.60;;;22.00;99.90;;;;;;5072965;28;20974;-65
2021/09/12 09:26:45;;;;;;;16.03;14.40;;;22.10;99.90;;;;;;5072318;28;20519;-65
2021/09/12 09:29:12;;;;;;;16.67;15.17;;;22.20;99.90;;;;;;5072721;28;20541;-64
2021/09/12 09:31:40;;;;;;;14.00;12.80;;;22.20;99.90;;;;;;5072696;28;20476;-63
2021/09/12 09:34:18;;;;;;;13.33;12.13;;;22.30;99.90;;;;;;5072319;28;20473;-63
2021/09/12 09:36:45;;;;;;;15.43;14.03;;;22.30;99.90;;;;;;5072780;28;20462;-63
2021/09/12 09:39:13;;;;;;;15.50;13.87;;;22.30;99.90;;;;;;5072176;28;20800;-63
2021/09/12 09:41:41;;;;;;;16.63;15.23;;;22.40;99.90;;;;;;5072775;28;20463;-63
2021/09/12 09:44:11;;;;;;;17.53;15.93;;;22.40;99.90;;;;;;5072215;28;20454;-63
2021/09/12 09:46:39;;;;;;;16.93;15.50;;;22.40;99.90;;;;;;5072872;28;20474;-64
2021/09/12 09:49:24;;;;;;;13.70;12.60;;;22.40;99.90;;;;;;5072081;28;20533;-64
2021/09/12 09:51:52;;;;;;;13.97;12.87;;;22.40;99.90;;;;;;5072132;28;20793;-63
2021/09/12 09:54:21;;;;;;;18.50;16.70;;;22.40;99.90;;;;;;5072738;28;20462;-64
2021/09/12 09:56:50;;;;;;;14.80;13.50;;;22.50;99.90;;;;;;5072551;28;20462;-63
2021/09/12 09:59:19;;;;;;;14.73;13.47;;;22.60;99.90;;;;;;5072270;28;20473;-63
2021/09/12 10:01:49;;;;;;;23.27;21.17;;;22.60;99.90;;;;;;5072623;28;20463;-63
2021/09/12 10:04:17;;;;;;;24.63;20.87;;;22.70;99.90;;;;;;5071497;28;20525;-63
2021/09/12 10:06:44;;;;;;;40.17;36.67;;;22.80;99.90;;;;;;5072355;28;20504;-63
2021/09/12 10:09:12;;;;;;;37.53;34.13;;;22.80;99.90;;;;;;5072013;28;20497;-64
2021/09/12 10:11:41;;;;;;;44.97;40.67;;;22.90;99.90;;;;;;5070963;28;20826;-63
2021/09/12 10:14:11;;;;;;;43.80;39.70;;;22.90;99.90;;;;;;5061413;28;20484;-64
2021/09/12 10:16:38;;;;;;;20.60;18.70;;;22.90;99.90;;;;;;5067764;28;20462;-64
2021/09/12 10:19:05;;;;;;;18.60;15.50;;;23.00;99.90;;;;;;5051927;28;20475;-64
2021/09/12 10:21:32;;;;;;;17.10;15.67;;;23.10;99.90;;;;;;5052745;28;20463;-65
2021/09/12 10:24:02;;;;;;;16.80;15.27;;;23.10;99.90;;;;;;5054790;28;20471;-63
2021/09/12 10:26:31;;;;;;;14.20;12.90;;;23.20;99.90;;;;;;5053071;28;20463;-62
2021/09/12 10:28:58;;;;;;;15.00;13.70;;;23.20;99.90;;;;;;5066828;28;20482;-64
2021/09/12 10:31:35;;;;;;;15.60;14.20;;;23.20;99.90;;;;;;5065513;28;20477;-64
2021/09/12 10:34:10;;;;;;;13.00;11.93;;;23.30;99.90;;;;;;5060540;28;20503;-63
2021/09/12 10:36:39;;;;;;;14.37;13.27;;;23.30;99.90;;;;;;5058459;28;20470;-63
2021/09/12 10:39:38;;;;;;;14.60;13.40;;;23.40;99.90;;;;;;5060999;28;20474;-65
2021/09/12 10:42:24;;;;;;;14.73;13.53;;;23.40;99.90;;;;;;5059800;28;20470;-64
2021/09/12 10:45:25;;;;;;;16.57;15.00;;;23.40;99.90;;;;;;5058206;28;20466;-64
2021/09/12 10:48:20;;;;;;;14.70;13.37;;;23.30;99.90;;;;;;5061071;28;20515;-63
2021/09/12 10:50:47;;;;;;;15.23;14.00;;;23.40;99.90;;;;;;5064456;28;20780;-64
2021/09/12 10:53:14;;;;;;;14.30;13.00;;;23.30;99.90;;;;;;5058221;28;20462;-65
2021/09/12 10:56:01;;;;;;;13.23;12.03;;;23.30;99.90;;;;;;5058110;28;20972;-66
2021/09/12 10:58:29;;;;;;;14.17;12.97;;;23.30;99.90;;;;;;5060964;28;20531;-66
2021/09/12 11:00:57;;;;;;;17.73;16.23;;;23.40;99.90;;;;;;5070250;28;20612;-65
2021/09/12 11:03:25;;;;;;;15.30;14.00;;;23.30;99.90;;;;;;5071284;28;20974;-65
2021/09/12 11:05:52;;;;;;;14.90;13.50;;;23.40;99.90;;;;;;5070453;28;20664;-66
2021/09/12 11:08:20;;;;;;;13.10;12.10;;;23.40;99.90;;;;;;5071884;28;20541;-67
2021/09/12 11:10:50;;;;;;;11.20;10.30;;;23.50;99.90;;;;;;5071539;28;20466;-66
2021/09/12 11:13:23;;;;;;;13.30;12.13;;;23.50;99.90;;;;;;5071937;28;20869;-67
2021/09/12 11:15:50;;;;;;;15.83;14.40;;;23.50;99.90;;;;;;5073212;28;20469;-67
2021/09/12 11:18:17;;;;;;;14.13;12.73;;;23.60;99.90;;;;;;5075178;28;20466;-67
2021/09/12 11:20:47;;;;;;;13.47;12.37;;;23.60;99.90;;;;;;5074725;28;20458;-66
2021/09/12 11:23:29;;;;;;;11.57;10.57;;;23.60;99.90;;;;;;5075520;28;20477;-67
2021/09/12 11:25:57;;;;;;;11.97;10.70;;;23.60;99.90;;;;;;5075031;28;20945;-66
2021/09/12 11:28:27;;;;;;;13.67;12.53;;;23.60;99.90;;;;;;5075217;28;20477;-66
2021/09/12 11:30:54;;;;;;;12.63;11.53;;;23.70;99.90;;;;;;5074631;28;20541;-65
2021/09/12 11:33:20;;;;;;;10.80;9.90;;;23.70;99.90;;;;;;5074637;28;20478;-67
2021/09/12 11:36:00;;;;;;;17.23;15.50;;;23.70;99.90;;;;;;5074531;28;20473;-65
2021/09/12 11:38:27;;;;;;;13.33;12.13;;;23.70;99.90;;;;;;5074825;28;20466;-66
2021/09/12 11:40:58;;;;;;;11.00;10.20;;;23.80;99.90;;;;;;5074591;28;20479;-64
2021/09/12 11:43:26;;;;;;;9.97;9.07;;;23.80;99.90;;;;;;5075098;28;20995;-65
2021/09/12 11:46:04;;;;;;;8.63;8.00;;;23.80;99.90;;;;;;5074501;28;21065;-65
2021/09/12 11:48:31;;;;;;;10.93;10.03;;;23.80;99.90;;;;;;5074733;28;20467;-67
2021/09/12 11:51:00;;;;;;;11.47;10.47;;;23.80;99.90;;;;;;5074414;28;20476;-67
2021/09/12 11:53:27;;;;;;;41.40;37.70;;;23.80;99.90;;;;;;5073887;28;20467;-67
2021/09/12 11:55:54;;;;;;;14.07;12.80;;;23.60;99.90;;;;;;5069930;28;20470;-66
2021/09/12 11:58:21;;;;;;;11.47;10.57;;;23.60;99.90;;;;;;5061258;28;20998;-66
2021/09/12 12:00:50;;;;;;;10.57;9.57;;;23.60;99.90;;;;;;5068441;28;20466;-66
2021/09/12 12:03:26;;;;;;;9.13;8.43;;;23.70;99.90;;;;;;5060299;28;20544;-66
2021/09/12 12:05:54;;;;;;;10.83;10.03;;;23.70;99.90;;;;;;5065664;28;20545;-66
2021/09/12 12:08:23;;;;;;;9.53;8.73;;;23.70;99.90;;;;;;5060684;28;20497;-66
2021/09/12 12:10:50;;;;;;;10.03;9.33;;;23.70;99.90;;;;;;5061370;28;21016;-66
2021/09/12 12:13:17;;;;;;;9.13;8.43;;;23.80;99.90;;;;;;5066084;28;20459;-66
2021/09/12 12:15:46;;;;;;;8.20;7.60;;;23.80;99.90;;;;;;5061089;28;20475;-66
2021/09/12 12:18:15;;;;;;;8.60;7.90;;;23.80;99.90;;;;;;5067308;28;20467;-66
2021/09/12 12:20:43;;;;;;;8.80;8.07;;;23.80;99.90;;;;;;5067508;28;20761;-66
2021/09/12 12:23:18;;;;;;;8.07;7.37;;;23.90;99.90;;;;;;5060456;28;20442;-66
2021/09/12 12:25:48;;;;;;;8.97;8.27;;;23.90;99.90;;;;;;5060209;28;20469;-66
2021/09/12 12:28:17;;;;;;;33.50;30.70;;;23.90;99.90;;;;;;5071448;28;20461;-66
2021/09/12 12:30:45;;;;;;;60.93;54.90;;;23.80;99.90;;;;;;5071350;28;20476;-66
2021/09/12 12:33:14;;;;;;;74.00;66.40;;;23.80;99.90;;;;;;5062117;28;20458;-64